Terminal Aerodrome Forecast
Issued by NWS

Home | Current Version | Previous Version | Text Only | Print | Product List | Glossary On
Versions: 1 2 3 4 5 6 7 8 9 10 11 12 13 14 15 16 17 18 19 20 21 22 23 24 25 26 27 28 29 30 31 32 33 34
000
FTUS45 KGJT 290045 AAA
TAFRIL
TAF AMD
KRIL 290045Z 2901/2924 30015KT P6SM VCSH BKN070 BKN090 OVC110
     FM290600 30009KT P6SM BKN070
     FM290900 29007KT P6SM VCSH SCT070
     FM291200 29004KT P6SM BKN080
     FM291800 35011KT P6SM SCT080=

USA.gov is the U.S. government's official web portal to all federal, state and local government web resources and services.